sensor_id;sensor_type;location;lat;lon;timestamp;pressure;altitude;pressure_sealevel;temperature;humidity
76024;BME280;64719;52.124;6.226;2023-04-05T00:01:48;102608.09;;;1.63;70.96
76024;BME280;64719;52.124;6.226;2023-04-05T00:04:15;102608.66;;;1.66;71.12
76024;BME280;64719;52.124;6.226;2023-04-05T00:06:45;102606.63;;;1.79;70.81
76024;BME280;64719;52.124;6.226;2023-04-05T00:09:16;102602.50;;;1.75;70.89
76024;BME280;64719;52.124;6.226;2023-04-05T00:11:43;102603.75;;;1.71;71.00
76024;BME280;64719;52.124;6.226;2023-04-05T00:14:09;102598.28;;;1.73;71.00
76024;BME280;64719;52.124;6.226;2023-04-05T00:16:36;102604.28;;;1.65;71.03
76024;BME280;64719;52.124;6.226;2023-04-05T00:19:04;102596.34;;;1.75;70.51
76024;BME280;64719;52.124;6.226;2023-04-05T00:21:30;102596.34;;;1.75;70.84
76024;BME280;64719;52.124;6.226;2023-04-05T00:23:58;102591.44;;;1.59;71.61
76024;BME280;64719;52.124;6.226;2023-04-05T00:26:25;102591.91;;;1.64;71.33
76024;BME280;64719;52.124;6.226;2023-04-05T00:28:51;102597.38;;;1.63;72.14
76024;BME280;64719;52.124;6.226;2023-04-05T00:31:18;102590.56;;;1.59;72.22
76024;BME280;64719;52.124;6.226;2023-04-05T00:33:45;102590.00;;;1.55;72.08
76024;BME280;64719;52.124;6.226;2023-04-05T00:36:16;102592.47;;;1.47;73.35
76024;BME280;64719;52.124;6.226;2023-04-05T00:38:44;102594.28;;;1.47;73.08
76024;BME280;64719;52.124;6.226;2023-04-05T00:41:12;102589.84;;;1.36;73.38
76024;BME280;64719;52.124;6.226;2023-04-05T00:43:38;102583.56;;;1.37;73.82
76024;BME280;64719;52.124;6.226;2023-04-05T00:46:05;102584.50;;;1.36;73.43
76024;BME280;64719;52.124;6.226;2023-04-05T00:48:32;102591.72;;;1.36;73.46
76024;BME280;64719;52.124;6.226;2023-04-05T00:50:59;102584.94;;;1.21;74.51
76024;BME280;64719;52.124;6.226;2023-04-05T00:53:27;102572.22;;;1.13;74.27
76024;BME280;64719;52.124;6.226;2023-04-05T00:55:55;102562.91;;;1.08;74.14
76024;BME280;64719;52.124;6.226;2023-04-05T00:58:22;102571.94;;;0.96;75.74
76024;BME280;64719;52.124;6.226;2023-04-05T01:00:59;102570.63;;;0.90;75.64
76024;BME280;64719;52.124;6.226;2023-04-05T01:03:31;102564.69;;;0.87;76.14
76024;BME280;64719;52.124;6.226;2023-04-05T01:06:09;102563.50;;;0.80;76.10
76024;BME280;64719;52.124;6.226;2023-04-05T01:08:44;102568.38;;;1.06;75.37
76024;BME280;64719;52.124;6.226;2023-04-05T01:11:13;102562.13;;;0.96;76.02
76024;BME280;64719;52.124;6.226;2023-04-05T01:13:40;102567.97;;;0.90;76.86
76024;BME280;64719;52.124;6.226;2023-04-05T01:16:06;102564.66;;;0.98;76.57
76024;BME280;64719;52.124;6.226;2023-04-05T01:18:33;102554.59;;;0.59;78.14
76024;BME280;64719;52.124;6.226;2023-04-05T01:21:14;102563.44;;;0.59;77.89
76024;BME280;64719;52.124;6.226;2023-04-05T01:23:52;102564.66;;;0.55;78.75
76024;BME280;64719;52.124;6.226;2023-04-05T01:26:44;102565.03;;;0.51;77.39
76024;BME280;64719;52.124;6.226;2023-04-05T01:29:47;102561.44;;;0.41;78.14
76024;BME280;64719;52.124;6.226;2023-04-05T01:32:21;102556.78;;;0.43;78.36
76024;BME280;64719;52.124;6.226;2023-04-05T01:34:55;102555.84;;;0.44;79.02
76024;BME280;64719;52.124;6.226;2023-04-05T01:37:26;102557.66;;;0.43;79.08
76024;BME280;64719;52.124;6.226;2023-04-05T01:39:58;102554.13;;;0.54;78.62
76024;BME280;64719;52.124;6.226;2023-04-05T01:42:25;102546.72;;;0.46;80.15
76024;BME280;64719;52.124;6.226;2023-04-05T01:44:55;102554.38;;;0.40;79.66
76024;BME280;64719;52.124;6.226;2023-04-05T01:47:23;102548.72;;;0.33;80.50
76024;BME280;64719;52.124;6.226;2023-04-05T01:49:50;102545.91;;;0.24;80.81
76024;BME280;64719;52.124;6.226;2023-04-05T01:52:16;102552.56;;;0.29;80.78
76024;BME280;64719;52.124;6.226;2023-04-05T01:54:43;102560.25;;;0.12;80.09
76024;BME280;64719;52.124;6.226;2023-04-05T01:57:09;102543.38;;;0.33;81.03
76024;BME280;64719;52.124;6.226;2023-04-05T01:59:36;102545.34;;;0.09;80.42
76024;BME280;64719;52.124;6.226;2023-04-05T02:02:04;102542.06;;;-0.06;81.97
76024;BME280;64719;52.124;6.226;2023-04-05T02:04:30;102540.47;;;0.14;82.11
76024;BME280;64719;52.124;6.226;2023-04-05T02:06:57;102550.19;;;-0.07;82.35
76024;BME280;64719;52.124;6.226;2023-04-05T02:09:25;102542.91;;;-0.16;83.06
76024;BME280;64719;52.124;6.226;2023-04-05T02:11:51;102537.94;;;-0.10;83.45
76024;BME280;64719;52.124;6.226;2023-04-05T02:14:18;102543.25;;;-0.21;83.73
76024;BME280;64719;52.124;6.226;2023-04-05T02:16:44;102536.47;;;-0.03;84.39
76024;BME280;64719;52.124;6.226;2023-04-05T02:19:12;102539.03;;;-0.23;84.31
76024;BME280;64719;52.124;6.226;2023-04-05T02:21:40;102536.25;;;-0.22;84.37
76024;BME280;64719;52.124;6.226;2023-04-05T02:24:06;102536.84;;;-0.29;85.38
76024;BME280;64719;52.124;6.226;2023-04-05T02:26:33;102532.94;;;-0.36;85.68
76024;BME280;64719;52.124;6.226;2023-04-05T02:28:59;102531.13;;;-0.14;85.28
76024;BME280;64719;52.124;6.226;2023-04-05T02:31:26;102529.91;;;-0.32;84.78
76024;BME280;64719;52.124;6.226;2023-04-05T02:33:52;102528.69;;;-0.50;84.71
76024;BME280;64719;52.124;6.226;2023-04-05T02:36:20;102531.13;;;-0.47;85.72
76024;BME280;64719;52.124;6.226;2023-04-05T02:38:47;102527.75;;;-0.27;86.52
76024;BME280;64719;52.124;6.226;2023-04-05T02:41:17;102529.53;;;-0.49;86.46
76024;BME280;64719;52.124;6.226;2023-04-05T02:43:44;102524.94;;;-0.36;86.46
76024;BME280;64719;52.124;6.226;2023-04-05T02:46:10;102527.03;;;-0.18;85.55
76024;BME280;64719;52.124;6.226;2023-04-05T02:48:37;102530.16;;;-0.24;86.04
76024;BME280;64719;52.124;6.226;2023-04-05T02:51:03;102527.03;;;-0.18;86.11
76024;BME280;64719;52.124;6.226;2023-04-05T02:53:31;102524.94;;;-0.36;85.87
76024;BME280;64719;52.124;6.226;2023-04-05T02:55:58;102520.31;;;-0.67;85.40
76024;BME280;64719;52.124;6.226;2023-04-05T02:58:25;102522.34;;;-0.71;86.38
76024;BME280;64719;52.124;6.226;2023-04-05T03:00:52;102522.50;;;-0.39;87.55
76024;BME280;64719;52.124;6.226;2023-04-05T03:03:21;102523.00;;;-0.34;86.54
76024;BME280;64719;52.124;6.226;2023-04-05T03:05:55;102514.84;;;-0.77;86.82
76024;BME280;64719;52.124;6.226;2023-04-05T03:08:28;102509.03;;;-0.82;86.54
76024;BME280;64719;52.124;6.226;2023-04-05T03:10:58;102519.72;;;-0.38;85.33
76024;BME280;64719;52.124;6.226;2023-04-05T03:13:24;102514.59;;;-0.85;85.96
76024;BME280;64719;52.124;6.226;2023-04-05T03:15:52;102511.22;;;-0.76;87.51
76024;BME280;64719;52.124;6.226;2023-04-05T03:18:19;102508.44;;;-0.74;86.79
76024;BME280;64719;52.124;6.226;2023-04-05T03:20:46;102504.56;;;-0.70;87.39
76024;BME280;64719;52.124;6.226;2023-04-05T03:23:14;102507.22;;;-0.70;86.61
76024;BME280;64719;52.124;6.226;2023-04-05T03:25:40;102500.31;;;-0.73;87.29
76024;BME280;64719;52.124;6.226;2023-04-05T03:28:08;102497.00;;;-0.98;87.01
76024;BME280;64719;52.124;6.226;2023-04-05T03:30:35;102501.44;;;-1.10;87.02
76024;BME280;64719;52.124;6.226;2023-04-05T03:33:01;102502.28;;;-1.09;86.96
76024;BME280;64719;52.124;6.226;2023-04-05T03:35:29;102496.03;;;-0.97;87.78
76024;BME280;64719;52.124;6.226;2023-04-05T03:37:56;102495.16;;;-0.98;87.71
76024;BME280;64719;52.124;6.226;2023-04-05T03:40:22;102493.53;;;-1.22;87.98
76024;BME280;64719;52.124;6.226;2023-04-05T03:42:49;102491.13;;;-1.14;89.08
76024;BME280;64719;52.124;6.226;2023-04-05T03:45:18;102491.94;;;-0.79;89.28
76024;BME280;64719;52.124;6.226;2023-04-05T03:47:47;102485.75;;;-0.91;88.77
76024;BME280;64719;52.124;6.226;2023-04-05T03:50:14;102487.84;;;-0.83;89.04
76024;BME280;64719;52.124;6.226;2023-04-05T03:52:40;102491.22;;;-0.81;88.62
76024;BME280;64719;52.124;6.226;2023-04-05T03:55:07;102489.97;;;-1.34;88.11
76024;BME280;64719;52.124;6.226;2023-04-05T03:57:36;102498.75;;;-1.21;88.95
76024;BME280;64719;52.124;6.226;2023-04-05T04:00:03;102495.44;;;-1.48;88.93
76024;BME280;64719;52.124;6.226;2023-04-05T04:02:41;102470.16;;;-1.19;89.00
76024;BME280;64719;52.124;6.226;2023-04-05T04:05:07;102480.00;;;-1.08;89.01
76024;BME280;64719;52.124;6.226;2023-04-05T04:07:34;102480.13;;;-1.10;88.22
76024;BME280;64719;52.124;6.226;2023-04-05T04:10:00;102478.00;;;-0.94;88.79
76024;BME280;64719;52.124;6.226;2023-04-05T04:12:27;102482.31;;;-1.38;87.99
76024;BME280;64719;52.124;6.226;2023-04-05T04:14:54;102490.88;;;-1.22;88.98
76024;BME280;64719;52.124;6.226;2023-04-05T04:17:26;102485.31;;;-1.19;89.63
76024;BME280;64719;52.124;6.226;2023-04-05T04:19:55;102480.78;;;-1.30;89.17
76024;BME280;64719;52.124;6.226;2023-04-05T04:22:23;102482.59;;;-1.30;89.28
76024;BME280;64719;52.124;6.226;2023-04-05T04:24:51;102477.94;;;-1.16;89.23
76024;BME280;64719;52.124;6.226;2023-04-05T04:27:18;102469.94;;;-1.16;88.77
76024;BME280;64719;52.124;6.226;2023-04-05T04:29:45;102458.53;;;-1.29;88.45
76024;BME280;64719;52.124;6.226;2023-04-05T04:32:12;102483.53;;;-1.31;88.81
76024;BME280;64719;52.124;6.226;2023-04-05T04:34:39;102475.06;;;-1.36;89.33
76024;BME280;64719;52.124;6.226;2023-04-05T04:37:10;102475.34;;;-1.28;90.25
76024;BME280;64719;52.124;6.226;2023-04-05T04:39:42;102478.66;;;-1.48;90.08
76024;BME280;64719;52.124;6.226;2023-04-05T04:42:09;102474.84;;;-1.33;90.01
76024;BME280;64719;52.124;6.226;2023-04-05T04:44:36;102478.97;;;-1.29;90.03
76024;BME280;64719;52.124;6.226;2023-04-05T04:47:02;102483.06;;;-1.36;89.67
76024;BME280;64719;52.124;6.226;2023-04-05T04:49:31;102484.56;;;-1.21;90.48
76024;BME280;64719;52.124;6.226;2023-04-05T04:51:57;102473.19;;;-1.23;90.38
76024;BME280;64719;52.124;6.226;2023-04-05T04:54:25;102474.72;;;-1.32;89.63
76024;BME280;64719;52.124;6.226;2023-04-05T04:56:53;102473.69;;;-1.18;90.37
76024;BME280;64719;52.124;6.226;2023-04-05T04:59:20;102478.91;;;-1.40;88.95
76024;BME280;64719;52.124;6.226;2023-04-05T05:01:46;102479.25;;;-1.45;90.48
76024;BME280;64719;52.124;6.226;2023-04-05T05:04:13;102477.81;;;-1.49;90.51
76024;BME280;64719;52.124;6.226;2023-04-05T05:06:39;102484.47;;;-1.20;89.83
76024;BME280;64719;52.124;6.226;2023-04-05T05:09:06;102473.97;;;-1.10;89.31
76024;BME280;64719;52.124;6.226;2023-04-05T05:11:34;102480.09;;;-1.21;89.36
76024;BME280;64719;52.124;6.226;2023-04-05T05:14:00;102472.81;;;-1.19;89.82
76024;BME280;64719;52.124;6.226;2023-04-05T05:16:27;102475.50;;;-1.19;88.97
76024;BME280;64719;52.124;6.226;2023-04-05T05:18:54;102482.78;;;-1.21;88.82
76024;BME280;64719;52.124;6.226;2023-04-05T05:21:20;102480.50;;;-1.03;89.90
76024;BME280;64719;52.124;6.226;2023-04-05T05:23:47;102471.06;;;-1.07;89.42
76024;BME280;64719;52.124;6.226;2023-04-05T05:26:13;102470.38;;;-0.98;88.77
76024;BME280;64719;52.124;6.226;2023-04-05T05:28:41;102475.97;;;-0.79;88.62
76024;BME280;64719;52.124;6.226;2023-04-05T05:31:08;102477.06;;;-0.82;88.17
76024;BME280;64719;52.124;6.226;2023-04-05T05:33:34;102479.69;;;-0.93;88.27
76024;BME280;64719;52.124;6.226;2023-04-05T05:36:01;102477.88;;;-0.92;87.83
76024;BME280;64719;52.124;6.226;2023-04-05T05:38:28;102472.69;;;-0.83;88.32
76024;BME280;64719;52.124;6.226;2023-04-05T05:40:55;102471.13;;;-0.63;88.06
76024;BME280;64719;52.124;6.226;2023-04-05T05:43:22;102477.69;;;-0.45;87.76
76024;BME280;64719;52.124;6.226;2023-04-05T05:45:50;102474.31;;;-0.47;88.33
76024;BME280;64719;52.124;6.226;2023-04-05T05:48:16;102476.84;;;-0.46;87.41
76024;BME280;64719;52.124;6.226;2023-04-05T05:50:43;102475.75;;;-0.43;87.90
76024;BME280;64719;52.124;6.226;2023-04-05T05:53:13;102484.34;;;-0.18;88.24
76024;BME280;64719;52.124;6.226;2023-04-05T05:55:39;102492.47;;;-0.19;87.26
76024;BME280;64719;52.124;6.226;2023-04-05T05:58:06;102483.38;;;-0.17;87.32
76024;BME280;64719;52.124;6.226;2023-04-05T06:00:33;102487.72;;;-0.05;86.71
76024;BME280;64719;52.124;6.226;2023-04-05T06:03:01;102485.66;;;-0.01;86.36
76024;BME280;64719;52.124;6.226;2023-04-05T06:05:28;102483.22;;;0.18;86.50
76024;BME280;64719;52.124;6.226;2023-04-05T06:07:55;102478.28;;;1.38;84.88
76024;BME280;64719;52.124;6.226;2023-04-05T06:10:21;102472.72;;;5.72;70.39
76024;BME280;64719;52.124;6.226;2023-04-05T06:12:49;102467.41;;;7.83;59.34
76024;BME280;64719;52.124;6.226;2023-04-05T06:15:16;102460.81;;;9.37;51.46
76024;BME280;64719;52.124;6.226;2023-04-05T06:17:42;102470.19;;;9.34;51.27
76024;BME280;64719;52.124;6.226;2023-04-05T06:20:11;102464.59;;;9.50;52.66
76024;BME280;64719;52.124;6.226;2023-04-05T06:22:38;102469.16;;;10.37;52.48
76024;BME280;64719;52.124;6.226;2023-04-05T06:25:06;102462.59;;;10.46;48.79
76024;BME280;64719;52.124;6.226;2023-04-05T06:27:33;102467.84;;;11.10;46.90
76024;BME280;64719;52.124;6.226;2023-04-05T06:30:00;102462.72;;;12.05;43.15
76024;BME280;64719;52.124;6.226;2023-04-05T06:32:26;102467.34;;;12.17;44.85
76024;BME280;64719;52.124;6.226;2023-04-05T06:34:53;102471.03;;;11.63;44.05
76024;BME280;64719;52.124;6.226;2023-04-05T06:37:21;102474.78;;;12.36;44.95
76024;BME280;64719;52.124;6.226;2023-04-05T06:39:47;102473.94;;;12.36;42.30
76024;BME280;64719;52.124;6.226;2023-04-05T06:42:13;102471.41;;;13.34;40.46
76024;BME280;64719;52.124;6.226;2023-04-05T06:44:40;102476.22;;;13.58;41.05
76024;BME280;64719;52.124;6.226;2023-04-05T06:47:06;102469.31;;;13.49;40.14
76024;BME280;64719;52.124;6.226;2023-04-05T06:49:33;102463.66;;;14.78;38.97
76024;BME280;64719;52.124;6.226;2023-04-05T06:51:59;102476.44;;;13.63;37.71
76024;BME280;64719;52.124;6.226;2023-04-05T06:54:28;102467.72;;;14.62;35.77
76024;BME280;64719;52.124;6.226;2023-04-05T06:56:54;102473.13;;;15.06;34.53
76024;BME280;64719;52.124;6.226;2023-04-05T06:59:21;102471.81;;;14.84;35.64
76024;BME280;64719;52.124;6.226;2023-04-05T07:01:48;102469.03;;;14.91;35.30
76024;BME280;64719;52.124;6.226;2023-04-05T07:04:14;102471.00;;;16.36;33.15
76024;BME280;64719;52.124;6.226;2023-04-05T07:06:41;102476.28;;;15.59;34.01
76024;BME280;64719;52.124;6.226;2023-04-05T07:09:07;102476.94;;;15.05;35.09
76024;BME280;64719;52.124;6.226;2023-04-05T07:11:35;102478.09;;;14.85;33.82
76024;BME280;64719;52.124;6.226;2023-04-05T07:14:04;102475.19;;;15.11;34.16
76024;BME280;64719;52.124;6.226;2023-04-05T07:16:31;102477.84;;;14.93;34.44
76024;BME280;64719;52.124;6.226;2023-04-05T07:18:58;102477.94;;;16.57;31.99
76024;BME280;64719;52.124;6.226;2023-04-05T07:21:24;102471.06;;;16.95;30.80
76024;BME280;64719;52.124;6.226;2023-04-05T07:23:51;102472.50;;;16.68;32.02
76024;BME280;64719;52.124;6.226;2023-04-05T07:26:20;102470.94;;;16.42;31.99
76024;BME280;64719;52.124;6.226;2023-04-05T07:28:52;102471.47;;;16.33;31.41
76024;BME280;64719;52.124;6.226;2023-04-05T07:31:21;102464.41;;;16.25;32.37
76024;BME280;64719;52.124;6.226;2023-04-05T07:33:47;102462.78;;;18.17;28.68
76024;BME280;64719;52.124;6.226;2023-04-05T07:36:14;102468.72;;;16.51;30.52
76024;BME280;64719;52.124;6.226;2023-04-05T07:38:40;102466.22;;;18.75;28.76
76024;BME280;64719;52.124;6.226;2023-04-05T07:41:07;102461.38;;;18.03;27.85
76024;BME280;64719;52.124;6.226;2023-04-05T07:43:33;102474.59;;;18.17;28.40
76024;BME280;64719;52.124;6.226;2023-04-05T07:46:07;102459.25;;;17.70;29.16
76024;BME280;64719;52.124;6.226;2023-04-05T07:48:34;102460.09;;;19.18;26.39
76024;BME280;64719;52.124;6.226;2023-04-05T07:51:03;102467.38;;;19.73;26.23
76024;BME280;64719;52.124;6.226;2023-04-05T07:53:29;102472.22;;;18.09;28.91
76024;BME280;64719;52.124;6.226;2023-04-05T07:55:56;102459.84;;;18.35;26.44
76024;BME280;64719;52.124;6.226;2023-04-05T07:58:23;102474.22;;;18.77;27.01
76024;BME280;64719;52.124;6.226;2023-04-05T08:03:22;102465.56;;;19.01;26.23
76024;BME280;64719;52.124;6.226;2023-04-05T08:05:48;102461.31;;;19.93;26.09
76024;BME280;64719;52.124;6.226;2023-04-05T08:08:15;102458.38;;;19.61;26.95
76024;BME280;64719;52.124;6.226;2023-04-05T08:10:41;102462.66;;;18.63;28.26
76024;BME280;64719;52.124;6.226;2023-04-05T08:13:08;102454.13;;;19.54;27.27
76024;BME280;64719;52.124;6.226;2023-04-05T08:15:34;102466.47;;;18.62;27.51
76024;BME280;64719;52.124;6.226;2023-04-05T08:18:01;102464.69;;;19.78;25.79
76024;BME280;64719;52.124;6.226;2023-04-05T08:20:29;102461.19;;;20.43;26.22
76024;BME280;64719;52.124;6.226;2023-04-05T08:22:55;102457.28;;;19.62;27.14
76024;BME280;64719;52.124;6.226;2023-04-05T08:25:22;102456.97;;;19.42;26.95
76024;BME280;64719;52.124;6.226;2023-04-05T08:27:52;102464.91;;;18.94;26.15
76024;BME280;64719;52.124;6.226;2023-04-05T08:30:18;102452.84;;;19.99;25.08
76024;BME280;64719;52.124;6.226;2023-04-05T08:32:45;102452.47;;;19.91;24.08
76024;BME280;64719;52.124;6.226;2023-04-05T08:35:11;102454.66;;;20.75;23.48
76024;BME280;64719;52.124;6.226;2023-04-05T08:37:39;102452.03;;;20.90;23.98
76024;BME280;64719;52.124;6.226;2023-04-05T08:40:07;102455.22;;;21.35;22.17
76024;BME280;64719;52.124;6.226;2023-04-05T08:42:37;102449.91;;;20.71;23.72
76024;BME280;64719;52.124;6.226;2023-04-05T08:45:09;102448.59;;;21.73;21.94
76024;BME280;64719;52.124;6.226;2023-04-05T08:47:36;102447.69;;;20.94;24.11
76024;BME280;64719;52.124;6.226;2023-04-05T08:50:08;102446.53;;;20.64;23.24
76024;BME280;64719;52.124;6.226;2023-04-05T08:52:37;102439.53;;;20.83;24.40
76024;BME280;64719;52.124;6.226;2023-04-05T08:55:08;102441.88;;;22.52;20.68
76024;BME280;64719;52.124;6.226;2023-04-05T08:57:36;102452.13;;;20.95;22.42
76024;BME280;64719;52.124;6.226;2023-04-05T09:00:05;102450.16;;;19.66;23.23
76024;BME280;64719;52.124;6.226;2023-04-05T09:02:33;102442.97;;;22.56;21.19
76024;BME280;64719;52.124;6.226;2023-04-05T09:05:08;102449.28;;;21.90;22.54
76024;BME280;64719;52.124;6.226;2023-04-05T09:07:36;102445.03;;;21.04;23.55
76024;BME280;64719;52.124;6.226;2023-04-05T09:10:05;102442.88;;;20.85;22.60
76024;BME280;64719;52.124;6.226;2023-04-05T09:12:34;102437.81;;;21.66;22.56
76024;BME280;64719;52.124;6.226;2023-04-05T09:15:08;102444.25;;;19.74;22.63
76024;BME280;64719;52.124;6.226;2023-04-05T09:17:36;102437.66;;;20.62;22.76
76024;BME280;64719;52.124;6.226;2023-04-05T09:20:06;102444.16;;;21.30;21.68
76024;BME280;64719;52.124;6.226;2023-04-05T09:22:41;102440.88;;;20.11;23.23
76024;BME280;64719;52.124;6.226;2023-04-05T09:25:08;102442.22;;;20.99;22.38
76024;BME280;64719;52.124;6.226;2023-04-05T09:27:52;102430.16;;;20.31;22.89
76024;BME280;64719;52.124;6.226;2023-04-05T09:30:20;102432.00;;;21.73;21.68
76024;BME280;64719;52.124;6.226;2023-04-05T09:32:49;102436.78;;;20.56;22.34
76024;BME280;64719;52.124;6.226;2023-04-05T09:35:24;102428.53;;;20.13;23.08
76024;BME280;64719;52.124;6.226;2023-04-05T09:37:53;102433.34;;;22.07;19.72
76024;BME280;64719;52.124;6.226;2023-04-05T09:40:22;102433.59;;;21.59;21.06
76024;BME280;64719;52.124;6.226;2023-04-05T09:42:54;102433.66;;;20.74;22.30
76024;BME280;64719;52.124;6.226;2023-04-05T09:45:26;102433.22;;;21.09;22.15
76024;BME280;64719;52.124;6.226;2023-04-05T09:47:56;102432.16;;;20.40;22.94
76024;BME280;64719;52.124;6.226;2023-04-05T09:50:23;102435.88;;;22.14;20.37
76024;BME280;64719;52.124;6.226;2023-04-05T09:53:04;102423.72;;;23.47;18.48
76024;BME280;64719;52.124;6.226;2023-04-05T09:55:32;102427.84;;;24.48;17.28
76024;BME280;64719;52.124;6.226;2023-04-05T09:58:12;102427.38;;;22.35;19.62
76024;BME280;64719;52.124;6.226;2023-04-05T10:00:47;102428.88;;;20.65;21.48
76024;BME280;64719;52.124;6.226;2023-04-05T10:03:24;102419.88;;;22.21;19.76
76024;BME280;64719;52.124;6.226;2023-04-05T10:05:54;102414.72;;;21.46;20.26
76024;BME280;64719;52.124;6.226;2023-04-05T10:08:24;102417.97;;;21.75;20.64
76024;BME280;64719;52.124;6.226;2023-04-05T10:10:54;102419.19;;;22.55;19.40
76024;BME280;64719;52.124;6.226;2023-04-05T10:13:22;102411.91;;;22.44;20.11
76024;BME280;64719;52.124;6.226;2023-04-05T10:15:55;102404.00;;;21.54;19.90
76024;BME280;64719;52.124;6.226;2023-04-05T10:18:29;102407.69;;;21.70;20.03
76024;BME280;64719;52.124;6.226;2023-04-05T10:21:08;102405.50;;;21.30;19.64
76024;BME280;64719;52.124;6.226;2023-04-05T10:23:41;102407.69;;;21.70;21.22
76024;BME280;64719;52.124;6.226;2023-04-05T10:26:15;102395.16;;;21.16;20.90
76024;BME280;64719;52.124;6.226;2023-04-05T10:29:00;102393.78;;;20.87;21.96
76024;BME280;64719;52.124;6.226;2023-04-05T10:31:47;102387.97;;;21.51;19.88
76024;BME280;64719;52.124;6.226;2023-04-05T10:34:22;102384.25;;;20.73;20.88
76024;BME280;64719;52.124;6.226;2023-04-05T10:36:57;102378.94;;;22.23;20.12
76024;BME280;64719;52.124;6.226;2023-04-05T10:39:26;102382.03;;;22.36;20.16
76024;BME280;64719;52.124;6.226;2023-04-05T10:41:54;102385.88;;;22.25;19.95
76024;BME280;64719;52.124;6.226;2023-04-05T10:44:26;102384.16;;;22.09;20.70
76024;BME280;64719;52.124;6.226;2023-04-05T10:46:54;102366.34;;;22.82;19.27
76024;BME280;64719;52.124;6.226;2023-04-05T10:49:31;102364.31;;;21.70;20.43
76024;BME280;64719;52.124;6.226;2023-04-05T10:52:00;102366.22;;;21.65;21.09
76024;BME280;64719;52.124;6.226;2023-04-05T10:54:27;102368.97;;;22.17;20.09
76024;BME280;64719;52.124;6.226;2023-04-05T10:56:55;102365.50;;;21.43;20.68
76024;BME280;64719;52.124;6.226;2023-04-05T10:59:22;102361.09;;;21.84;19.84
76024;BME280;64719;52.124;6.226;2023-04-05T11:01:52;102349.81;;;21.07;21.24
76024;BME280;64719;52.124;6.226;2023-04-05T11:04:19;102358.44;;;20.84;20.91
76024;BME280;64719;52.124;6.226;2023-04-05T11:06:46;102356.50;;;22.09;20.24
76024;BME280;64719;52.124;6.226;2023-04-05T11:09:15;102355.31;;;20.75;20.72
76024;BME280;64719;52.124;6.226;2023-04-05T11:11:44;102349.28;;;21.10;20.79
76024;BME280;64719;52.124;6.226;2023-04-05T11:14:21;102347.81;;;20.97;20.90
76024;BME280;64719;52.124;6.226;2023-04-05T11:16:52;102349.06;;;21.63;20.54
76024;BME280;64719;52.124;6.226;2023-04-05T11:19:47;102345.00;;;19.48;20.60
76024;BME280;64719;52.124;6.226;2023-04-05T11:22:24;102344.06;;;20.82;21.24
76024;BME280;64719;52.124;6.226;2023-04-05T11:24:55;102342.66;;;22.04;20.12
76024;BME280;64719;52.124;6.226;2023-04-05T11:27:25;102343.41;;;21.01;20.42
76024;BME280;64719;52.124;6.226;2023-04-05T11:29:56;102334.50;;;21.26;19.89
76024;BME280;64719;52.124;6.226;2023-04-05T11:32:39;102332.84;;;20.62;20.55
76024;BME280;64719;52.124;6.226;2023-04-05T11:35:12;102328.34;;;21.19;21.16
76024;BME280;64719;52.124;6.226;2023-04-05T11:37:52;102325.00;;;22.20;20.01
76024;BME280;64719;52.124;6.226;2023-04-05T11:40:23;102331.69;;;20.58;21.68
76024;BME280;64719;52.124;6.226;2023-04-05T11:43:02;102326.06;;;21.52;20.87
76024;BME280;64719;52.124;6.226;2023-04-05T11:45:30;102331.91;;;22.28;18.67
76024;BME280;64719;52.124;6.226;2023-04-05T11:47:59;102325.78;;;21.44;19.41
76024;BME280;64719;52.124;6.226;2023-04-05T11:50:25;102317.34;;;22.97;17.89
76024;BME280;64719;52.124;6.226;2023-04-05T11:53:09;102312.03;;;22.36;20.04
76024;BME280;64719;52.124;6.226;2023-04-05T11:55:37;102306.19;;;23.48;18.18
76024;BME280;64719;52.124;6.226;2023-04-05T11:58:10;102305.16;;;22.88;17.92
76024;BME280;64719;52.124;6.226;2023-04-05T12:00:37;102301.59;;;21.19;20.68
76024;BME280;64719;52.124;6.226;2023-04-05T12:03:05;102296.16;;;21.91;19.49
76024;BME280;64719;52.124;6.226;2023-04-05T12:05:47;102292.38;;;22.37;18.31
76024;BME280;64719;52.124;6.226;2023-04-05T12:08:13;102289.94;;;21.64;19.69
76024;BME280;64719;52.124;6.226;2023-04-05T12:10:43;102290.72;;;22.41;19.12
76024;BME280;64719;52.124;6.226;2023-04-05T12:13:10;102288.47;;;23.38;18.20
76024;BME280;64719;52.124;6.226;2023-04-05T12:15:37;102281.03;;;23.19;18.54
76024;BME280;64719;52.124;6.226;2023-04-05T12:18:12;102288.16;;;23.50;18.30
76024;BME280;64719;52.124;6.226;2023-04-05T12:20:39;102281.88;;;22.44;19.15
76024;BME280;64719;52.124;6.226;2023-04-05T12:23:06;102278.59;;;22.72;19.00
76024;BME280;64719;52.124;6.226;2023-04-05T12:25:33;102274.34;;;23.45;17.52
76024;BME280;64719;52.124;6.226;2023-04-05T12:28:03;102267.50;;;22.77;18.81
76024;BME280;64719;52.124;6.226;2023-04-05T12:30:31;102274.34;;;24.47;17.89
76024;BME280;64719;52.124;6.226;2023-04-05T12:33:07;102271.66;;;22.90;18.10
76024;BME280;64719;52.124;6.226;2023-04-05T12:35:34;102267.97;;;21.99;19.20
76024;BME280;64719;52.124;6.226;2023-04-05T12:38:01;102267.22;;;22.99;19.02
76024;BME280;64719;52.124;6.226;2023-04-05T12:40:29;102260.03;;;22.58;19.43
76024;BME280;64719;52.124;6.226;2023-04-05T12:43:00;102258.84;;;20.90;19.77
76024;BME280;64719;52.124;6.226;2023-04-05T12:45:28;102254.06;;;20.44;20.43
76024;BME280;64719;52.124;6.226;2023-04-05T12:47:56;102258.09;;;20.63;19.58
76024;BME280;64719;52.124;6.226;2023-04-05T12:50:28;102251.00;;;21.70;19.21
76024;BME280;64719;52.124;6.226;2023-04-05T12:52:56;102244.31;;;21.56;19.45
76024;BME280;64719;52.124;6.226;2023-04-05T12:55:24;102253.78;;;20.77;19.26
76024;BME280;64719;52.124;6.226;2023-04-05T12:57:52;102250.13;;;21.03;19.80
76024;BME280;64719;52.124;6.226;2023-04-05T13:00:20;102238.41;;;21.33;19.07
76024;BME280;64719;52.124;6.226;2023-04-05T13:02:49;102233.19;;;22.83;17.92
76024;BME280;64719;52.124;6.226;2023-04-05T13:05:18;102234.81;;;22.14;19.42